Illinois — WYQ3689 — position and weather

sailwx.info

Track history (hours):
 
Tides and Currents Weather Stations Pressure Air Temp Water Temp Dewpoint Dewpoint Depression Visibility Wind Speed Wind Dir Waves Ship Positions

Illinois

Owner: Great Lakes Dredge & Dock Company, OAK BROOK, IL. More information available from US FCC via Universal Licensing System and Coast Guard Vessel Documentation Center.

Last reported at 2014-Sep-15 14:14 UTC. Time now 2014-Oct-21 02:19 UTC.
Position N 36°50' W 076°16'.
Warning: this ship's position is 35 days out of date.

Length 69 m.

Type: Other ship. MMSI: 366796250.

Date/timePositionNaut miles runAvg speedWind from/ knotsBaromVisibWave heightAir tempDewpointWater temp
2014-Sep-15 14:14N 36°50' W 076°16'0 0.0
2014-Sep-15 11:05N 36°50' W 076°16'0 0.0
2014-Sep-15 06:09N 36°50' W 076°16'0 0.0
2014-Sep-14 05:29N 36°50' W 076°16'0 0.0
2014-Sep-14 04:17N 36°50' W 076°16'0 0.0
2014-Sep-14 03:23N 36°50' W 076°16'0 0.0
2014-Sep-13 11:26N 36°50' W 076°16'0 0.0
2014-Sep-13 04:20N 36°50' W 076°16'0 0.0
2014-Sep-13 01:26N 36°50' W 076°16'0 0.0
2014-Sep-13 00:23N 36°50' W 076°16'0 0.0
2014-Sep-12 23:14N 36°50' W 076°16'0 0.0
2014-Sep-12 21:29N 36°50' W 076°16'0 0.0
2014-Sep-12 20:05N 36°50' W 076°16'4 0.2
2014-Sep-11 17:28N 36°53' W 076°20'4 4.6
2014-Sep-11 16:30N 36°58' W 076°20'3 3.1
2014-Sep-11 15:33N 36°60' W 076°18'5 4.4
2014-Sep-11 14:28N 37°00' W 076°12'4 4.4
2014-Sep-11 13:31N 36°59' W 076°07'7 5.6
2014-Sep-11 12:18N 36°56' W 075°59'3 4.1
2014-Sep-11 11:33N 36°54' W 075°56'  
Track history (hours):
 
Tides and Currents Weather Stations Pressure Air Temp Water Temp Dewpoint Dewpoint Depression Visibility Wind Speed Wind Dir Waves Ship Positions

Illinois

Owner: Great Lakes Dredge & Dock Company, OAK BROOK, IL. More information available from US FCC via Universal Licensing System and Coast Guard Vessel Documentation Center.

Last reported at 2014-Sep-15 14:14 UTC. Time now 2014-Oct-21 02:19 UTC.
Position N 36°50' W 076°16'.
Warning: this ship's position is 35 days out of date.

Length 69 m.

Type: Other ship. MMSI: 366796250.

Date/timePositionNaut miles runAvg speedWind from/ knotsBaromVisibWave heightAir tempDewpointWater temp
2014-Sep-15 14:14N 36°50' W 076°16'0 0.0
2014-Sep-15 11:05N 36°50' W 076°16'0 0.0
2014-Sep-15 06:09N 36°50' W 076°16'0 0.0
2014-Sep-14 05:29N 36°50' W 076°16'0 0.0
2014-Sep-14 04:17N 36°50' W 076°16'0 0.0
2014-Sep-14 03:23N 36°50' W 076°16'0 0.0
2014-Sep-13 11:26N 36°50' W 076°16'0 0.0
2014-Sep-13 04:20N 36°50' W 076°16'0 0.0
2014-Sep-13 01:26N 36°50' W 076°16'0 0.0
2014-Sep-13 00:23N 36°50' W 076°16'0 0.0
2014-Sep-12 23:14N 36°50' W 076°16'0 0.0
2014-Sep-12 21:29N 36°50' W 076°16'0 0.0
2014-Sep-12 20:05N 36°50' W 076°16'4 0.2
2014-Sep-11 17:28N 36°53' W 076°20'4 4.6
2014-Sep-11 16:30N 36°58' W 076°20'3 3.1
2014-Sep-11 15:33N 36°60' W 076°18'5 4.4
2014-Sep-11 14:28N 37°00' W 076°12'4 4.4
2014-Sep-11 13:31N 36°59' W 076°07'7 5.6
2014-Sep-11 12:18N 36°56' W 075°59'3 4.1
2014-Sep-11 11:33N 36°54' W 075°56'  

Dump ship's entire track history